sensor_id;sensor_type;location;lat;lon;timestamp;P1;durP1;ratioP1;P2;durP2;ratioP2
18973;SDS011;9621;48.690;9.466;2022-11-21T07:26:22;2.03;;;1.53;;
18973;SDS011;9621;48.690;9.466;2022-11-21T07:28:48;5.47;;;1.50;;
18973;SDS011;9621;48.690;9.466;2022-11-21T07:31:15;1.73;;;1.60;;
18973;SDS011;9621;48.690;9.466;2022-11-21T07:33:42;3.40;;;1.50;;
18973;SDS011;9621;48.690;9.466;2022-11-21T07:36:13;2.07;;;1.60;;
18973;SDS011;9621;48.690;9.466;2022-11-21T07:38:40;4.63;;;1.87;;
18973;SDS011;9621;48.690;9.466;2022-11-21T07:41:07;3.53;;;1.37;;
18973;SDS011;9621;48.690;9.466;2022-11-21T07:43:35;2.33;;;1.60;;
18973;SDS011;9621;48.690;9.466;2022-11-21T07:46:02;2.23;;;1.13;;
18973;SDS011;9621;48.690;9.466;2022-11-21T07:48:29;6.33;;;1.97;;
18973;SDS011;9621;48.690;9.466;2022-11-21T07:50:56;2.00;;;1.10;;
18973;SDS011;9621;48.690;9.466;2022-11-21T07:53:24;1.97;;;1.23;;
18973;SDS011;9621;48.690;9.466;2022-11-21T07:55:50;4.03;;;1.30;;
18973;SDS011;9621;48.690;9.466;2022-11-21T07:58:17;1.73;;;0.90;;
18973;SDS011;9621;48.690;9.466;2022-11-21T08:00:46;2.13;;;1.30;;
18973;SDS011;9621;48.690;9.466;2022-11-21T08:03:13;1.87;;;1.07;;
18973;SDS011;9621;48.690;9.466;2022-11-21T08:05:40;2.83;;;1.20;;
18973;SDS011;9621;48.690;9.466;2022-11-21T08:08:08;3.40;;;1.33;;
18973;SDS011;9621;48.690;9.466;2022-11-21T08:10:36;7.03;;;1.40;;
18973;SDS011;9621;48.690;9.466;2022-11-21T08:13:04;6.03;;;1.60;;
18973;SDS011;9621;48.690;9.466;2022-11-21T08:15:31;5.60;;;1.70;;
18973;SDS011;9621;48.690;9.466;2022-11-21T08:18:02;6.97;;;2.33;;
18973;SDS011;9621;48.690;9.466;2022-11-21T08:20:32;4.00;;;1.60;;
18973;SDS011;9621;48.690;9.466;2022-11-21T08:22:59;6.30;;;1.97;;
18973;SDS011;9621;48.690;9.466;2022-11-21T08:25:26;2.80;;;1.63;;
18973;SDS011;9621;48.690;9.466;2022-11-21T08:27:54;3.80;;;1.70;;
18973;SDS011;9621;48.690;9.466;2022-11-21T08:30:21;4.10;;;1.67;;
18973;SDS011;9621;48.690;9.466;2022-11-21T08:32:48;5.73;;;1.80;;
18973;SDS011;9621;48.690;9.466;2022-11-21T08:35:17;3.80;;;1.70;;
18973;SDS011;9621;48.690;9.466;2022-11-21T08:37:44;3.87;;;1.97;;
18973;SDS011;9621;48.690;9.466;2022-11-21T08:40:11;3.40;;;1.47;;
18973;SDS011;9621;48.690;9.466;2022-11-21T08:42:38;4.90;;;1.90;;
18973;SDS011;9621;48.690;9.466;2022-11-21T08:45:05;4.80;;;1.37;;
18973;SDS011;9621;48.690;9.466;2022-11-21T08:47:32;6.30;;;1.77;;
18973;SDS011;9621;48.690;9.466;2022-11-21T08:49:59;2.70;;;1.50;;
18973;SDS011;9621;48.690;9.466;2022-11-21T08:52:28;3.43;;;1.50;;
18973;SDS011;9621;48.690;9.466;2022-11-21T08:54:55;2.67;;;1.53;;
18973;SDS011;9621;48.690;9.466;2022-11-21T08:57:22;5.63;;;2.33;;
18973;SDS011;9621;48.690;9.466;2022-11-21T08:59:49;5.63;;;1.80;;
18973;SDS011;9621;48.690;9.466;2022-11-21T09:02:16;4.20;;;1.43;;
18973;SDS011;9621;48.690;9.466;2022-11-21T09:04:43;4.13;;;1.60;;
18973;SDS011;9621;48.690;9.466;2022-11-21T09:07:10;2.40;;;1.30;;
18973;SDS011;9621;48.690;9.466;2022-11-21T09:09:38;3.10;;;1.90;;
18973;SDS011;9621;48.690;9.466;2022-11-21T09:12:05;5.73;;;1.73;;
18973;SDS011;9621;48.690;9.466;2022-11-21T09:14:33;10.13;;;2.33;;
18973;SDS011;9621;48.690;9.466;2022-11-21T09:17:17;4.93;;;1.67;;
18973;SDS011;9621;48.690;9.466;2022-11-21T09:20:02;4.47;;;1.53;;
18973;SDS011;9621;48.690;9.466;2022-11-21T09:22:29;3.83;;;1.17;;
18973;SDS011;9621;48.690;9.466;2022-11-21T09:24:57;3.70;;;1.03;;
18973;SDS011;9621;48.690;9.466;2022-11-21T09:27:24;4.70;;;1.40;;
18973;SDS011;9621;48.690;9.466;2022-11-21T09:29:54;3.47;;;1.60;;
18973;SDS011;9621;48.690;9.466;2022-11-21T09:32:21;4.87;;;1.40;;
18973;SDS011;9621;48.690;9.466;2022-11-21T09:34:48;3.53;;;1.60;;
18973;SDS011;9621;48.690;9.466;2022-11-21T09:37:15;4.73;;;1.80;;
18973;SDS011;9621;48.690;9.466;2022-11-21T09:39:42;4.10;;;1.80;;
18973;SDS011;9621;48.690;9.466;2022-11-21T09:42:18;4.57;;;1.30;;
18973;SDS011;9621;48.690;9.466;2022-11-21T09:45:09;3.70;;;1.63;;
18973;SDS011;9621;48.690;9.466;2022-11-21T09:47:41;7.53;;;1.47;;
18973;SDS011;9621;48.690;9.466;2022-11-21T09:50:20;4.47;;;1.50;;
18973;SDS011;9621;48.690;9.466;2022-11-21T09:52:53;4.93;;;1.53;;
18973;SDS011;9621;48.690;9.466;2022-11-21T09:55:26;4.75;;;1.42;;
18973;SDS011;9621;48.690;9.466;2022-11-21T09:58:05;6.43;;;1.67;;
18973;SDS011;9621;48.690;9.466;2022-11-21T10:00:37;8.15;;;1.70;;
18973;SDS011;9621;48.690;9.466;2022-11-21T10:03:04;4.32;;;1.20;;
18973;SDS011;9621;48.690;9.466;2022-11-21T10:05:32;4.10;;;1.58;;
18973;SDS011;9621;48.690;9.466;2022-11-21T10:08:04;3.75;;;1.73;;
18973;SDS011;9621;48.690;9.466;2022-11-21T10:10:44;5.25;;;1.60;;
18973;SDS011;9621;48.690;9.466;2022-11-21T10:13:23;5.50;;;1.50;;
18973;SDS011;9621;48.690;9.466;2022-11-21T10:16:02;4.50;;;1.48;;
18973;SDS011;9621;48.690;9.466;2022-11-21T10:19:01;3.75;;;1.25;;
18973;SDS011;9621;48.690;9.466;2022-11-21T10:21:51;5.57;;;1.50;;
18973;SDS011;9621;48.690;9.466;2022-11-21T10:24:40;3.30;;;1.20;;
18973;SDS011;9621;48.690;9.466;2022-11-21T10:27:14;6.73;;;1.40;;
18973;SDS011;9621;48.690;9.466;2022-11-21T10:29:49;4.53;;;1.30;;
18973;SDS011;9621;48.690;9.466;2022-11-21T10:32:21;4.00;;;1.37;;
18973;SDS011;9621;48.690;9.466;2022-11-21T10:34:52;3.77;;;1.10;;
18973;SDS011;9621;48.690;9.466;2022-11-21T10:37:26;3.80;;;1.10;;
18973;SDS011;9621;48.690;9.466;2022-11-21T10:40:01;2.28;;;0.98;;
18973;SDS011;9621;48.690;9.466;2022-11-21T10:42:35;5.72;;;1.50;;
18973;SDS011;9621;48.690;9.466;2022-11-21T10:45:09;3.10;;;1.17;;
18973;SDS011;9621;48.690;9.466;2022-11-21T10:47:44;2.03;;;0.90;;
18973;SDS011;9621;48.690;9.466;2022-11-21T10:53:04;3.10;;;1.20;;
18973;SDS011;9621;48.690;9.466;2022-11-21T10:55:57;2.40;;;1.25;;
18973;SDS011;9621;48.690;9.466;2022-11-21T10:58:39;3.30;;;0.95;;
18973;SDS011;9621;48.690;9.466;2022-11-21T11:01:22;3.17;;;1.50;;
18973;SDS011;9621;48.690;9.466;2022-11-21T11:04:04;6.60;;;2.30;;
18973;SDS011;9621;48.690;9.466;2022-11-21T11:06:33;8.88;;;2.47;;
18973;SDS011;9621;48.690;9.466;2022-11-21T11:09:00;8.00;;;3.10;;
18973;SDS011;9621;48.690;9.466;2022-11-21T11:11:28;5.60;;;1.40;;
18973;SDS011;9621;48.690;9.466;2022-11-21T11:13:56;6.57;;;1.80;;
18973;SDS011;9621;48.690;9.466;2022-11-21T11:16:26;5.97;;;1.58;;
18973;SDS011;9621;48.690;9.466;2022-11-21T11:18:56;5.65;;;1.73;;
18973;SDS011;9621;48.690;9.466;2022-11-21T11:21:27;6.72;;;1.42;;
18973;SDS011;9621;48.690;9.466;2022-11-21T11:24:04;9.95;;;1.75;;
18973;SDS011;9621;48.690;9.466;2022-11-21T11:26:48;2.45;;;1.00;;
18973;SDS011;9621;48.690;9.466;2022-11-21T11:29:17;4.35;;;1.10;;
18973;SDS011;9621;48.690;9.466;2022-11-21T11:31:51;3.33;;;1.10;;
18973;SDS011;9621;48.690;9.466;2022-11-21T11:34:20;4.55;;;1.10;;
18973;SDS011;9621;48.690;9.466;2022-11-21T11:37:00;4.10;;;1.20;;
18973;SDS011;9621;48.690;9.466;2022-11-21T11:39:41;4.78;;;1.42;;
18973;SDS011;9621;48.690;9.466;2022-11-21T11:45:38;4.70;;;1.10;;
18973;SDS011;9621;48.690;9.466;2022-11-21T11:48:35;4.00;;;1.17;;
18973;SDS011;9621;48.690;9.466;2022-11-21T11:51:17;3.83;;;1.10;;
18973;SDS011;9621;48.690;9.466;2022-11-21T11:53:49;4.40;;;0.98;;
18973;SDS011;9621;48.690;9.466;2022-11-21T11:56:20;5.13;;;1.45;;
18973;SDS011;9621;48.690;9.466;2022-11-21T11:58:51;2.22;;;1.30;;
18973;SDS011;9621;48.690;9.466;2022-11-21T12:01:23;3.08;;;1.00;;
18973;SDS011;9621;48.690;9.466;2022-11-21T12:04:04;3.80;;;1.10;;
18973;SDS011;9621;48.690;9.466;2022-11-21T12:06:37;4.70;;;1.25;;
18973;SDS011;9621;48.690;9.466;2022-11-21T12:09:12;3.95;;;1.30;;
18973;SDS011;9621;48.690;9.466;2022-11-21T12:11:50;2.97;;;1.08;;
18973;SDS011;9621;48.690;9.466;2022-11-21T12:14:36;2.90;;;1.10;;
18973;SDS011;9621;48.690;9.466;2022-11-21T12:17:34;3.80;;;1.13;;
18973;SDS011;9621;48.690;9.466;2022-11-21T12:20:13;3.87;;;1.50;;
18973;SDS011;9621;48.690;9.466;2022-11-21T12:22:44;4.63;;;1.70;;
18973;SDS011;9621;48.690;9.466;2022-11-21T12:25:14;2.88;;;1.13;;
18973;SDS011;9621;48.690;9.466;2022-11-21T12:27:45;3.03;;;1.30;;
18973;SDS011;9621;48.690;9.466;2022-11-21T12:30:19;7.25;;;1.20;;
18973;SDS011;9621;48.690;9.466;2022-11-21T12:33:08;3.92;;;1.35;;
18973;SDS011;9621;48.690;9.466;2022-11-21T12:41:42;3.60;;;1.15;;
18973;SDS011;9621;48.690;9.466;2022-11-21T12:44:38;3.03;;;1.13;;
18973;SDS011;9621;48.690;9.466;2022-11-21T12:47:25;3.38;;;1.40;;
18973;SDS011;9621;48.690;9.466;2022-11-21T12:50:39;3.15;;;1.00;;
18973;SDS011;9621;48.690;9.466;2022-11-21T12:53:36;5.17;;;1.20;;
18973;SDS011;9621;48.690;9.466;2022-11-21T12:56:27;3.93;;;1.33;;
18973;SDS011;9621;48.690;9.466;2022-11-21T12:59:03;5.20;;;0.90;;
18973;SDS011;9621;48.690;9.466;2022-11-21T13:01:32;3.27;;;1.10;;
18973;SDS011;9621;48.690;9.466;2022-11-21T13:04:07;5.17;;;1.33;;
18973;SDS011;9621;48.690;9.466;2022-11-21T13:06:40;7.57;;;1.37;;
18973;SDS011;9621;48.690;9.466;2022-11-21T13:09:13;3.20;;;1.13;;
18973;SDS011;9621;48.690;9.466;2022-11-21T13:11:44;6.73;;;1.23;;
18973;SDS011;9621;48.690;9.466;2022-11-21T13:14:26;3.97;;;1.20;;
18973;SDS011;9621;48.690;9.466;2022-11-21T13:17:05;6.00;;;1.53;;
18973;SDS011;9621;48.690;9.466;2022-11-21T13:19:41;3.33;;;1.13;;
18973;SDS011;9621;48.690;9.466;2022-11-21T13:30:58;4.90;;;1.30;;
18973;SDS011;9621;48.690;9.466;2022-11-21T13:36:32;5.43;;;1.40;;
18973;SDS011;9621;48.690;9.466;2022-11-21T13:42:02;3.43;;;1.40;;
18973;SDS011;9621;48.690;9.466;2022-11-21T13:44:58;4.53;;;1.50;;
18973;SDS011;9621;48.690;9.466;2022-11-21T13:51:12;3.63;;;1.20;;
18973;SDS011;9621;48.690;9.466;2022-11-21T13:53:58;3.13;;;1.20;;
18973;SDS011;9621;48.690;9.466;2022-11-21T13:56:43;5.10;;;1.60;;
18973;SDS011;9621;48.690;9.466;2022-11-21T13:59:37;3.57;;;1.50;;
18973;SDS011;9621;48.690;9.466;2022-11-21T14:02:20;2.67;;;1.40;;
18973;SDS011;9621;48.690;9.466;2022-11-21T14:05:19;5.97;;;1.60;;
18973;SDS011;9621;48.690;9.466;2022-11-21T14:08:16;7.13;;;1.70;;
18973;SDS011;9621;48.690;9.466;2022-11-21T14:10:45;6.07;;;1.53;;
18973;SDS011;9621;48.690;9.466;2022-11-21T14:13:16;8.53;;;1.30;;
18973;SDS011;9621;48.690;9.466;2022-11-21T14:15:51;2.87;;;1.60;;
18973;SDS011;9621;48.690;9.466;2022-11-21T14:18:27;5.80;;;1.30;;
18973;SDS011;9621;48.690;9.466;2022-11-21T14:20:57;6.40;;;1.40;;
18973;SDS011;9621;48.690;9.466;2022-11-21T14:23:27;7.83;;;1.30;;
18973;SDS011;9621;48.690;9.466;2022-11-21T14:25:58;6.27;;;1.40;;
18973;SDS011;9621;48.690;9.466;2022-11-21T14:28:28;5.07;;;1.87;;
18973;SDS011;9621;48.690;9.466;2022-11-21T14:30:58;4.37;;;1.57;;
18973;SDS011;9621;48.690;9.466;2022-11-21T14:33:28;7.00;;;1.40;;
18973;SDS011;9621;48.690;9.466;2022-11-21T14:36:01;4.90;;;1.40;;
18973;SDS011;9621;48.690;9.466;2022-11-21T14:38:31;4.57;;;1.40;;
18973;SDS011;9621;48.690;9.466;2022-11-21T14:44:03;4.73;;;1.43;;
18973;SDS011;9621;48.690;9.466;2022-11-21T14:46:42;4.07;;;1.50;;
18973;SDS011;9621;48.690;9.466;2022-11-21T14:49:17;3.83;;;1.10;;
18973;SDS011;9621;48.690;9.466;2022-11-21T14:51:47;5.57;;;1.47;;
18973;SDS011;9621;48.690;9.466;2022-11-21T14:54:16;4.23;;;1.40;;
18973;SDS011;9621;48.690;9.466;2022-11-21T14:56:45;5.60;;;1.90;;
18973;SDS011;9621;48.690;9.466;2022-11-21T14:59:16;4.97;;;1.47;;
18973;SDS011;9621;48.690;9.466;2022-11-21T15:01:54;4.30;;;1.60;;
18973;SDS011;9621;48.690;9.466;2022-11-21T15:04:28;5.07;;;1.53;;
18973;SDS011;9621;48.690;9.466;2022-11-21T15:06:57;4.90;;;1.57;;
18973;SDS011;9621;48.690;9.466;2022-11-21T15:09:24;5.47;;;1.73;;
18973;SDS011;9621;48.690;9.466;2022-11-21T15:11:53;1.97;;;1.17;;
18973;SDS011;9621;48.690;9.466;2022-11-21T15:14:29;8.77;;;1.50;;
18973;SDS011;9621;48.690;9.466;2022-11-21T15:17:00;6.57;;;1.90;;
18973;SDS011;9621;48.690;9.466;2022-11-21T15:19:30;3.40;;;1.33;;
18973;SDS011;9621;48.690;9.466;2022-11-21T15:21:59;5.97;;;1.60;;
18973;SDS011;9621;48.690;9.466;2022-11-21T15:24:29;8.43;;;1.80;;
18973;SDS011;9621;48.690;9.466;2022-11-21T15:27:21;6.53;;;1.77;;
18973;SDS011;9621;48.690;9.466;2022-11-21T15:29:59;6.43;;;1.90;;
18973;SDS011;9621;48.690;9.466;2022-11-21T15:32:28;5.03;;;1.60;;
18973;SDS011;9621;48.690;9.466;2022-11-21T15:34:55;4.23;;;1.63;;
18973;SDS011;9621;48.690;9.466;2022-11-21T15:37:22;6.93;;;1.70;;
18973;SDS011;9621;48.690;9.466;2022-11-21T15:39:51;6.93;;;2.03;;
18973;SDS011;9621;48.690;9.466;2022-11-21T15:45:24;9.40;;;2.40;;
18973;SDS011;9621;48.690;9.466;2022-11-21T15:47:52;4.40;;;1.83;;
18973;SDS011;9621;48.690;9.466;2022-11-21T15:50:21;6.77;;;1.60;;
18973;SDS011;9621;48.690;9.466;2022-11-21T15:52:51;5.13;;;2.00;;
18973;SDS011;9621;48.690;9.466;2022-11-21T15:55:19;11.43;;;2.90;;
18973;SDS011;9621;48.690;9.466;2022-11-21T15:57:47;12.57;;;2.20;;
18973;SDS011;9621;48.690;9.466;2022-11-21T16:00:14;5.43;;;1.90;;
18973;SDS011;9621;48.690;9.466;2022-11-21T16:02:42;8.17;;;2.00;;
18973;SDS011;9621;48.690;9.466;2022-11-21T16:05:11;5.80;;;2.10;;
18973;SDS011;9621;48.690;9.466;2022-11-21T16:07:39;8.20;;;2.40;;
18973;SDS011;9621;48.690;9.466;2022-11-21T16:10:06;7.67;;;2.50;;
18973;SDS011;9621;48.690;9.466;2022-11-21T16:12:34;12.83;;;4.10;;
18973;SDS011;9621;48.690;9.466;2022-11-21T16:15:01;13.47;;;5.87;;
18973;SDS011;9621;48.690;9.466;2022-11-21T16:17:28;19.60;;;7.53;;
18973;SDS011;9621;48.690;9.466;2022-11-21T16:19:55;19.67;;;6.57;;
18973;SDS011;9621;48.690;9.466;2022-11-21T16:22:24;15.37;;;5.60;;
18973;SDS011;9621;48.690;9.466;2022-11-21T16:24:51;14.23;;;4.97;;
18973;SDS011;9621;48.690;9.466;2022-11-21T16:27:18;30.40;;;8.33;;
18973;SDS011;9621;48.690;9.466;2022-11-21T16:29:44;52.90;;;12.63;;
18973;SDS011;9621;48.690;9.466;2022-11-21T16:32:11;14.90;;;5.43;;
18973;SDS011;9621;48.690;9.466;2022-11-21T16:34:38;15.73;;;4.07;;
18973;SDS011;9621;48.690;9.466;2022-11-21T16:37:06;16.50;;;4.40;;
18973;SDS011;9621;48.690;9.466;2022-11-21T16:39:34;6.87;;;3.00;;
18973;SDS011;9621;48.690;9.466;2022-11-21T16:42:01;7.00;;;3.33;;
18973;SDS011;9621;48.690;9.466;2022-11-21T16:44:28;10.47;;;4.03;;
18973;SDS011;9621;48.690;9.466;2022-11-21T16:46:56;7.53;;;3.37;;
18973;SDS011;9621;48.690;9.466;2022-11-21T16:49:23;11.20;;;4.13;;
18973;SDS011;9621;48.690;9.466;2022-11-21T16:51:50;12.93;;;6.57;;
18973;SDS011;9621;48.690;9.466;2022-11-21T16:54:16;9.70;;;5.27;;
18973;SDS011;9621;48.690;9.466;2022-11-21T16:56:45;12.13;;;3.43;;
18973;SDS011;9621;48.690;9.466;2022-11-21T16:59:12;28.77;;;14.33;;
18973;SDS011;9621;48.690;9.466;2022-11-21T17:01:38;24.90;;;12.57;;
18973;SDS011;9621;48.690;9.466;2022-11-21T17:04:05;20.37;;;9.67;;
18973;SDS011;9621;48.690;9.466;2022-11-21T17:06:34;77.93;;;34.20;;
18973;SDS011;9621;48.690;9.466;2022-11-21T17:09:01;26.47;;;11.90;;
18973;SDS011;9621;48.690;9.466;2022-11-21T17:11:28;36.00;;;16.20;;
18973;SDS011;9621;48.690;9.466;2022-11-21T17:13:58;35.00;;;20.13;;
18973;SDS011;9621;48.690;9.466;2022-11-21T17:16:27;17.60;;;8.67;;
18973;SDS011;9621;48.690;9.466;2022-11-21T17:18:55;16.13;;;8.20;;
18973;SDS011;9621;48.690;9.466;2022-11-21T17:21:23;10.43;;;4.30;;
18973;SDS011;9621;48.690;9.466;2022-11-21T17:23:51;7.67;;;3.53;;
18973;SDS011;9621;48.690;9.466;2022-11-21T17:26:19;23.33;;;9.90;;
18973;SDS011;9621;48.690;9.466;2022-11-21T17:28:50;18.33;;;6.03;;
18973;SDS011;9621;48.690;9.466;2022-11-21T17:31:20;14.47;;;7.20;;
18973;SDS011;9621;48.690;9.466;2022-11-21T17:33:48;11.73;;;5.73;;
18973;SDS011;9621;48.690;9.466;2022-11-21T17:36:16;13.43;;;6.43;;
18973;SDS011;9621;48.690;9.466;2022-11-21T17:38:44;17.63;;;7.90;;
18973;SDS011;9621;48.690;9.466;2022-11-21T17:41:12;17.53;;;7.93;;
18973;SDS011;9621;48.690;9.466;2022-11-21T17:43:40;21.17;;;10.60;;
18973;SDS011;9621;48.690;9.466;2022-11-21T17:46:09;9.50;;;4.93;;
18973;SDS011;9621;48.690;9.466;2022-11-21T17:48:39;17.10;;;10.10;;
18973;SDS011;9621;48.690;9.466;2022-11-21T17:51:07;19.80;;;10.40;;
18973;SDS011;9621;48.690;9.466;2022-11-21T17:53:37;16.10;;;8.10;;
18973;SDS011;9621;48.690;9.466;2022-11-21T17:56:07;20.40;;;10.07;;
18973;SDS011;9621;48.690;9.466;2022-11-21T17:58:38;26.97;;;14.03;;
18973;SDS011;9621;48.690;9.466;2022-11-21T18:01:06;15.63;;;8.93;;
18973;SDS011;9621;48.690;9.466;2022-11-21T18:03:37;16.47;;;8.37;;
18973;SDS011;9621;48.690;9.466;2022-11-21T18:06:07;14.13;;;6.83;;
18973;SDS011;9621;48.690;9.466;2022-11-21T18:08:36;19.93;;;9.87;;
18973;SDS011;9621;48.690;9.466;2022-11-21T18:11:05;20.80;;;10.83;;
18973;SDS011;9621;48.690;9.466;2022-11-21T18:13:33;14.03;;;8.03;;
18973;SDS011;9621;48.690;9.466;2022-11-21T18:16:01;16.97;;;8.73;;
18973;SDS011;9621;48.690;9.466;2022-11-21T18:18:30;28.77;;;15.00;;
18973;SDS011;9621;48.690;9.466;2022-11-21T18:21:02;50.23;;;21.57;;
18973;SDS011;9621;48.690;9.466;2022-11-21T18:23:29;21.87;;;12.87;;
18973;SDS011;9621;48.690;9.466;2022-11-21T18:25:59;12.37;;;6.43;;
18973;SDS011;9621;48.690;9.466;2022-11-21T18:28:27;12.67;;;5.37;;
18973;SDS011;9621;48.690;9.466;2022-11-21T18:31:01;9.90;;;5.63;;
18973;SDS011;9621;48.690;9.466;2022-11-21T18:33:29;10.90;;;5.37;;
18973;SDS011;9621;48.690;9.466;2022-11-21T18:35:56;13.23;;;5.60;;
18973;SDS011;9621;48.690;9.466;2022-11-21T18:38:24;12.03;;;6.40;;
18973;SDS011;9621;48.690;9.466;2022-11-21T18:40:52;16.37;;;8.47;;
18973;SDS011;9621;48.690;9.466;2022-11-21T18:43:19;17.90;;;9.10;;
18973;SDS011;9621;48.690;9.466;2022-11-21T18:45:46;22.80;;;10.17;;
18973;SDS011;9621;48.690;9.466;2022-11-21T18:48:13;33.37;;;21.33;;
18973;SDS011;9621;48.690;9.466;2022-11-21T18:50:40;28.00;;;15.80;;
18973;SDS011;9621;48.690;9.466;2022-11-21T18:53:06;31.27;;;17.07;;
18973;SDS011;9621;48.690;9.466;2022-11-21T18:55:37;26.77;;;15.90;;
18973;SDS011;9621;48.690;9.466;2022-11-21T18:58:05;28.77;;;14.80;;
18973;SDS011;9621;48.690;9.466;2022-11-21T19:00:32;22.10;;;10.90;;
18973;SDS011;9621;48.690;9.466;2022-11-21T19:02:58;21.87;;;9.80;;
18973;SDS011;9621;48.690;9.466;2022-11-21T19:05:25;15.73;;;7.97;;
18973;SDS011;9621;48.690;9.466;2022-11-21T19:07:52;15.17;;;7.17;;
18973;SDS011;9621;48.690;9.466;2022-11-21T19:10:20;17.67;;;8.83;;
18973;SDS011;9621;48.690;9.466;2022-11-21T19:12:48;28.57;;;10.83;;
18973;SDS011;9621;48.690;9.466;2022-11-21T19:15:15;15.40;;;9.57;;
18973;SDS011;9621;48.690;9.466;2022-11-21T19:17:42;17.63;;;8.67;;
18973;SDS011;9621;48.690;9.466;2022-11-21T19:20:10;15.33;;;8.00;;
18973;SDS011;9621;48.690;9.466;2022-11-21T19:22:37;14.70;;;7.83;;
18973;SDS011;9621;48.690;9.466;2022-11-21T19:25:05;17.60;;;7.53;;
18973;SDS011;9621;48.690;9.466;2022-11-21T19:27:32;18.90;;;9.37;;
18973;SDS011;9621;48.690;9.466;2022-11-21T19:30:01;13.27;;;7.60;;
18973;SDS011;9621;48.690;9.466;2022-11-21T19:32:28;13.63;;;6.43;;
18973;SDS011;9621;48.690;9.466;2022-11-21T19:34:58;12.63;;;5.20;;
18973;SDS011;9621;48.690;9.466;2022-11-21T19:37:25;11.33;;;5.37;;
18973;SDS011;9621;48.690;9.466;2022-11-21T19:39:53;14.57;;;7.10;;
18973;SDS011;9621;48.690;9.466;2022-11-21T19:42:20;25.43;;;8.27;;
18973;SDS011;9621;48.690;9.466;2022-11-21T19:44:47;17.00;;;8.57;;
18973;SDS011;9621;48.690;9.466;2022-11-21T19:47:15;21.57;;;9.80;;
18973;SDS011;9621;48.690;9.466;2022-11-21T19:49:42;23.70;;;12.30;;
18973;SDS011;9621;48.690;9.466;2022-11-21T19:52:09;18.70;;;8.57;;
18973;SDS011;9621;48.690;9.466;2022-11-21T19:54:36;12.20;;;6.00;;
18973;SDS011;9621;48.690;9.466;2022-11-21T19:57:03;11.13;;;6.47;;
18973;SDS011;9621;48.690;9.466;2022-11-21T19:59:30;16.80;;;7.70;;
18973;SDS011;9621;48.690;9.466;2022-11-21T20:01:57;15.10;;;8.80;;
18973;SDS011;9621;48.690;9.466;2022-11-21T20:04:26;16.67;;;8.77;;
18973;SDS011;9621;48.690;9.466;2022-11-21T20:06:53;13.67;;;7.53;;
18973;SDS011;9621;48.690;9.466;2022-11-21T20:09:21;11.47;;;6.77;;
18973;SDS011;9621;48.690;9.466;2022-11-21T20:11:50;15.33;;;7.20;;
18973;SDS011;9621;48.690;9.466;2022-11-21T20:14:17;12.87;;;6.83;;
18973;SDS011;9621;48.690;9.466;2022-11-21T20:16:45;16.00;;;7.13;;
18973;SDS011;9621;48.690;9.466;2022-11-21T20:19:14;15.90;;;7.03;;
18973;SDS011;9621;48.690;9.466;2022-11-21T20:21:44;13.70;;;7.03;;
18973;SDS011;9621;48.690;9.466;2022-11-21T20:24:12;12.97;;;6.00;;
18973;SDS011;9621;48.690;9.466;2022-11-21T20:26:39;11.40;;;5.53;;
18973;SDS011;9621;48.690;9.466;2022-11-21T20:29:12;8.00;;;5.03;;
18973;SDS011;9621;48.690;9.466;2022-11-21T20:31:39;11.07;;;6.80;;
18973;SDS011;9621;48.690;9.466;2022-11-21T20:34:09;10.07;;;6.43;;
18973;SDS011;9621;48.690;9.466;2022-11-21T20:36:38;14.47;;;7.03;;
18973;SDS011;9621;48.690;9.466;2022-11-21T20:39:07;8.30;;;5.47;;
18973;SDS011;9621;48.690;9.466;2022-11-21T20:41:41;9.57;;;4.90;;
18973;SDS011;9621;48.690;9.466;2022-11-21T20:44:11;15.33;;;6.60;;
18973;SDS011;9621;48.690;9.466;2022-11-21T20:46:39;9.80;;;5.40;;
18973;SDS011;9621;48.690;9.466;2022-11-21T20:49:07;12.10;;;6.20;;
18973;SDS011;9621;48.690;9.466;2022-11-21T20:51:34;13.60;;;6.63;;
18973;SDS011;9621;48.690;9.466;2022-11-21T20:54:01;9.03;;;4.87;;
18973;SDS011;9621;48.690;9.466;2022-11-21T20:56:32;7.47;;;4.67;;
18973;SDS011;9621;48.690;9.466;2022-11-21T20:58:59;6.83;;;4.60;;
18973;SDS011;9621;48.690;9.466;2022-11-21T21:01:26;9.07;;;4.40;;
18973;SDS011;9621;48.690;9.466;2022-11-21T21:03:53;9.07;;;4.63;;
18973;SDS011;9621;48.690;9.466;2022-11-21T21:06:21;6.83;;;4.33;;
18973;SDS011;9621;48.690;9.466;2022-11-21T21:08:48;10.03;;;6.73;;
18973;SDS011;9621;48.690;9.466;2022-11-21T21:11:16;13.17;;;7.50;;
18973;SDS011;9621;48.690;9.466;2022-11-21T21:13:46;13.67;;;7.43;;
18973;SDS011;9621;48.690;9.466;2022-11-21T21:16:15;11.83;;;7.40;;
18973;SDS011;9621;48.690;9.466;2022-11-21T21:18:45;10.43;;;6.20;;
18973;SDS011;9621;48.690;9.466;2022-11-21T21:21:13;9.33;;;5.30;;
18973;SDS011;9621;48.690;9.466;2022-11-21T21:23:42;13.93;;;7.37;;
18973;SDS011;9621;48.690;9.466;2022-11-21T21:26:11;13.23;;;6.90;;
18973;SDS011;9621;48.690;9.466;2022-11-21T21:28:39;14.83;;;6.73;;
18973;SDS011;9621;48.690;9.466;2022-11-21T21:31:09;12.67;;;7.20;;
18973;SDS011;9621;48.690;9.466;2022-11-21T21:33:37;11.17;;;6.70;;
18973;SDS011;9621;48.690;9.466;2022-11-21T21:36:05;12.73;;;5.50;;
18973;SDS011;9621;48.690;9.466;2022-11-21T21:38:33;9.93;;;5.50;;
18973;SDS011;9621;48.690;9.466;2022-11-21T21:41:01;9.20;;;5.97;;
18973;SDS011;9621;48.690;9.466;2022-11-21T21:43:28;11.90;;;7.03;;
18973;SDS011;9621;48.690;9.466;2022-11-21T21:46:00;13.47;;;6.90;;
18973;SDS011;9621;48.690;9.466;2022-11-21T21:48:29;11.57;;;6.30;;
18973;SDS011;9621;48.690;9.466;2022-11-21T21:53:28;9.00;;;5.63;;
18973;SDS011;9621;48.690;9.466;2022-11-21T21:55:56;9.53;;;5.93;;
18973;SDS011;9621;48.690;9.466;2022-11-21T21:58:25;13.77;;;6.37;;
18973;SDS011;9621;48.690;9.466;2022-11-21T22:00:52;18.60;;;11.30;;
18973;SDS011;9621;48.690;9.466;2022-11-21T22:03:19;13.03;;;7.70;;
18973;SDS011;9621;48.690;9.466;2022-11-21T22:05:48;11.13;;;5.97;;
18973;SDS011;9621;48.690;9.466;2022-11-21T22:08:14;9.30;;;5.80;;
18973;SDS011;9621;48.690;9.466;2022-11-21T22:10:41;8.00;;;5.03;;
18973;SDS011;9621;48.690;9.466;2022-11-21T22:13:08;10.63;;;4.90;;
18973;SDS011;9621;48.690;9.466;2022-11-21T22:15:35;10.03;;;5.20;;
18973;SDS011;9621;48.690;9.466;2022-11-21T22:18:02;10.57;;;4.60;;
18973;SDS011;9621;48.690;9.466;2022-11-21T22:20:29;13.43;;;4.97;;
18973;SDS011;9621;48.690;9.466;2022-11-21T22:22:58;8.47;;;4.80;;
18973;SDS011;9621;48.690;9.466;2022-11-21T22:25:24;10.47;;;4.90;;
18973;SDS011;9621;48.690;9.466;2022-11-21T22:27:51;12.47;;;4.67;;
18973;SDS011;9621;48.690;9.466;2022-11-21T22:30:18;10.00;;;4.83;;
18973;SDS011;9621;48.690;9.466;2022-11-21T22:32:45;9.93;;;4.60;;
18973;SDS011;9621;48.690;9.466;2022-11-21T22:35:12;9.17;;;4.40;;
18973;SDS011;9621;48.690;9.466;2022-11-21T22:37:39;10.27;;;4.70;;
18973;SDS011;9621;48.690;9.466;2022-11-21T22:40:08;9.37;;;4.90;;
18973;SDS011;9621;48.690;9.466;2022-11-21T22:42:36;7.30;;;4.50;;
18973;SDS011;9621;48.690;9.466;2022-11-21T22:45:03;7.27;;;4.73;;
18973;SDS011;9621;48.690;9.466;2022-11-21T22:47:31;10.00;;;4.80;;
18973;SDS011;9621;48.690;9.466;2022-11-21T22:49:58;10.33;;;5.07;;
18973;SDS011;9621;48.690;9.466;2022-11-21T22:52:25;9.00;;;5.07;;
18973;SDS011;9621;48.690;9.466;2022-11-21T22:54:51;7.43;;;4.63;;
18973;SDS011;9621;48.690;9.466;2022-11-21T22:57:20;13.03;;;4.80;;
18973;SDS011;9621;48.690;9.466;2022-11-21T22:59:47;10.33;;;6.57;;
18973;SDS011;9621;48.690;9.466;2022-11-21T23:02:15;11.27;;;5.63;;
18973;SDS011;9621;48.690;9.466;2022-11-21T23:04:41;11.57;;;5.87;;
18973;SDS011;9621;48.690;9.466;2022-11-21T23:07:09;7.33;;;4.70;;
18973;SDS011;9621;48.690;9.466;2022-11-21T23:09:36;8.10;;;4.70;;
18973;SDS011;9621;48.690;9.466;2022-11-21T23:12:03;9.13;;;4.73;;
18973;SDS011;9621;48.690;9.466;2022-11-21T23:14:32;9.10;;;5.60;;
18973;SDS011;9621;48.690;9.466;2022-11-21T23:16:59;9.13;;;5.43;;
18973;SDS011;9621;48.690;9.466;2022-11-21T23:19:26;9.17;;;5.47;;
18973;SDS011;9621;48.690;9.466;2022-11-21T23:21:53;11.87;;;6.47;;